createdAt,value
2022-09-12T00:00:51.583Z,15.72
2022-09-12T00:05:54.186Z,15.63
2022-09-12T00:10:56.717Z,15.58
2022-09-12T00:16:00.976Z,15.61
2022-09-12T00:21:05.672Z,15.57
2022-09-12T00:26:08.594Z,15.56
2022-09-12T00:31:14.332Z,15.45
2022-09-12T00:36:19.432Z,15.37
2022-09-12T00:41:24.244Z,15.45
2022-09-12T00:46:34.971Z,15.22
2022-09-12T00:51:38.444Z,15.32
2022-09-12T00:56:44.784Z,15.36
2022-09-12T01:01:51.913Z,15.35
2022-09-12T01:06:57.256Z,15.34
2022-09-12T01:12:00.663Z,15.27
2022-09-12T01:17:04.784Z,15.21
2022-09-12T01:22:26.057Z,15.22
2022-09-12T01:27:43.004Z,15.18
2022-09-12T01:33:00.620Z,15.18
2022-09-12T01:38:12.419Z,15.00
2022-09-12T01:43:26.629Z,15.02
2022-09-12T01:48:35.743Z,15.07
2022-09-12T01:53:43.943Z,15.11
2022-09-12T01:58:51.786Z,15.09
2022-09-12T02:04:01.639Z,14.99
2022-09-12T02:09:09.948Z,14.91
2022-09-12T02:14:16.502Z,14.63
2022-09-12T02:19:23.930Z,14.92
2022-09-12T02:24:31.291Z,14.90
2022-09-12T02:29:33.917Z,14.82
2022-09-12T02:34:49.295Z,14.89
2022-09-12T02:39:55.107Z,14.87
2022-09-12T02:44:58.365Z,14.78
2022-09-12T02:50:02.574Z,14.77
2022-09-12T02:55:07.051Z,14.72
2022-09-12T03:00:10.658Z,14.70
2022-09-12T03:05:21.991Z,14.72
2022-09-12T03:10:33.225Z,14.80
2022-09-12T03:15:47.528Z,14.83
2022-09-12T03:21:01.648Z,14.65
2022-09-12T03:26:08.147Z,14.68
2022-09-12T03:31:16.801Z,14.46
2022-09-12T03:36:24.136Z,14.68
2022-09-12T03:41:26.651Z,14.55
2022-09-12T03:46:29.181Z,14.55
2022-09-12T03:51:33.051Z,14.49
2022-09-12T03:56:37.055Z,14.55
2022-09-12T04:01:40.700Z,14.56
2022-09-12T04:06:45.307Z,14.52
2022-09-12T04:11:47.918Z,14.50
2022-09-12T04:16:50.472Z,14.53
2022-09-12T04:21:54.577Z,14.52
2022-09-12T04:26:57.137Z,14.55
2022-09-12T04:31:59.750Z,14.53
2022-09-12T04:37:03.703Z,14.54
2022-09-12T04:42:06.801Z,14.60
2022-09-12T04:47:09.376Z,14.52
2022-09-12T04:52:13.279Z,14.54
2022-09-12T04:57:15.803Z,14.58
2022-09-12T05:02:18.521Z,14.64
2022-09-12T05:07:22.461Z,14.67
2022-09-12T05:12:25.147Z,14.82
2022-09-12T05:17:29.924Z,14.84
2022-09-12T05:22:33.799Z,14.92
2022-09-12T05:27:36.331Z,15.02
2022-09-12T05:32:38.924Z,15.08
2022-09-12T05:37:44.043Z,15.15
2022-09-12T05:42:46.601Z,15.17
2022-09-12T05:47:49.544Z,15.25
2022-09-12T05:52:54.833Z,15.36
2022-09-12T05:57:57.373Z,15.46
2022-09-12T06:02:59.891Z,15.52
2022-09-12T06:08:03.929Z,15.58
2022-09-12T06:13:06.472Z,15.64
2022-09-12T06:18:09.009Z,15.71
2022-09-12T06:23:12.895Z,15.78
2022-09-12T06:28:15.435Z,15.91
2022-09-12T06:33:17.983Z,16.03
2022-09-12T06:38:21.879Z,16.17
2022-09-12T06:43:24.435Z,16.29
2022-09-12T06:48:27.615Z,16.40
2022-09-12T06:53:33.391Z,16.46
2022-09-12T06:58:37.071Z,16.45
2022-09-12T07:03:40.601Z,16.61
2022-09-12T07:08:44.635Z,16.72
2022-09-12T07:13:49.447Z,16.78
2022-09-12T07:18:53.265Z,16.83
2022-09-12T07:23:58.089Z,16.94
2022-09-12T07:29:25.143Z,16.99
2022-09-12T07:34:23.786Z,17.08
2022-09-12T07:39:27.722Z,17.13
2022-09-12T07:44:30.669Z,17.19
2022-09-12T07:49:33.336Z,17.21
2022-09-12T07:54:37.301Z,17.22
2022-09-12T07:59:52.606Z,17.19
2022-09-12T08:04:55.647Z,17.21
2022-09-12T08:10:00.329Z,17.30
2022-09-12T08:15:03.136Z,17.42
2022-09-12T08:20:06.458Z,17.62
2022-09-12T08:25:11.255Z,17.81
2022-09-12T08:30:14.895Z,18.02
2022-09-12T08:35:17.533Z,18.08
2022-09-12T08:40:21.580Z,18.18
2022-09-12T08:45:30.495Z,18.42
2022-09-12T08:50:33.424Z,18.44
2022-09-12T08:55:41.108Z,18.58
2022-09-12T09:00:53.894Z,18.68
2022-09-12T09:06:03.900Z,18.63
2022-09-12T09:11:23.085Z,18.74
2022-09-12T09:16:30.823Z,18.93
2022-09-12T09:21:40.271Z,19.14
2022-09-12T09:26:50.275Z,19.33
2022-09-12T09:31:55.856Z,19.48
2022-09-12T09:37:08.496Z,19.61
2022-09-12T09:42:28.974Z,19.67
2022-09-12T09:47:31.674Z,19.71
2022-09-12T09:52:36.362Z,19.82
2022-09-12T09:57:43.368Z,19.85
2022-09-12T10:02:59.916Z,19.93
2022-09-12T10:08:11.119Z,19.97
2022-09-12T10:13:25.840Z,20.07
2022-09-12T10:18:43.068Z,20.07
2022-09-12T10:23:47.232Z,20.12
2022-09-12T10:28:54.743Z,20.15
2022-09-12T10:33:59.565Z,20.19
2022-09-12T10:39:03.729Z,20.26
2022-09-12T10:44:15.731Z,20.38
2022-09-12T10:49:31.151Z,20.41
2022-09-12T10:54:34.394Z,20.54
2022-09-12T10:59:58.655Z,20.62
2022-09-12T11:05:08.910Z,20.59
2022-09-12T11:10:32.031Z,20.87
2022-09-12T11:16:06.670Z,21.18
2022-09-12T11:21:20.897Z,21.46
2022-09-12T11:26:38.279Z,21.56
2022-09-12T11:32:17.569Z,21.73
2022-09-12T11:37:37.352Z,21.85
2022-09-12T11:42:41.687Z,22.01
2022-09-12T11:47:50.076Z,21.95
2022-09-12T11:52:54.238Z,22.31
2022-09-12T11:57:58.861Z,22.52
2022-09-12T12:03:09.952Z,22.69
2022-09-12T12:08:14.505Z,22.81
2022-09-12T12:13:22.302Z,22.96
2022-09-12T12:18:28.024Z,23.07
2022-09-12T12:23:33.403Z,23.22
2022-09-12T12:28:59.321Z,23.26
2022-09-12T12:34:19.802Z,23.56
2022-09-12T12:39:56.156Z,23.75
2022-09-12T12:44:59.378Z,23.93
2022-09-12T12:50:07.090Z,24.06
2022-09-12T12:55:16.475Z,24.22
2022-09-12T13:00:33.467Z,24.38
2022-09-12T13:05:43.389Z,24.57
2022-09-12T13:10:51.311Z,24.80
2022-09-12T13:15:54.583Z,24.95
2022-09-12T13:21:10.180Z,25.20
2022-09-12T13:26:14.676Z,25.27
2022-09-12T13:31:25.223Z,25.33
2022-09-12T13:37:04.778Z,25.54
2022-09-12T13:42:37.068Z,25.59
2022-09-12T13:47:43.095Z,25.55
2022-09-12T13:52:50.952Z,25.51
2022-09-12T13:58:00.492Z,25.41
2022-09-12T14:03:37.404Z,25.37
2022-09-12T14:08:40.794Z,25.28
2022-09-12T14:13:45.979Z,25.05
2022-09-12T14:18:49.901Z,24.99
2022-09-12T14:23:53.128Z,24.87
2022-09-12T14:28:57.561Z,24.71
2022-09-12T14:34:11.178Z,24.59
2022-09-12T14:39:22.931Z,24.47
2022-09-12T14:44:28.447Z,24.42
2022-09-12T14:49:35.375Z,24.38
2022-09-12T14:54:42.400Z,24.34
2022-09-12T14:59:46.298Z,24.26
2022-09-12T15:04:50.188Z,24.13
2022-09-12T15:09:53.130Z,24.01
2022-09-12T15:15:01.485Z,23.96
2022-09-12T15:20:05.218Z,23.90
2022-09-12T15:25:08.878Z,23.86
2022-09-12T15:30:14.303Z,23.66
2022-09-12T15:35:19.327Z,23.80
2022-09-12T15:40:21.923Z,23.76
2022-09-12T15:45:28.444Z,23.73
2022-09-12T15:50:31.809Z,23.64
2022-09-12T15:55:34.663Z,23.56
2022-09-12T16:00:39.048Z,23.56
2022-09-12T16:05:41.635Z,23.55
2022-09-12T16:10:44.912Z,23.55
2022-09-12T16:15:48.916Z,23.49
2022-09-12T16:20:53.211Z,23.49
2022-09-12T16:25:59.899Z,23.43
2022-09-12T16:31:06.470Z,23.47
2022-09-12T16:36:10.771Z,23.41
2022-09-12T16:41:16.578Z,23.35
2022-09-12T16:46:23.166Z,23.30
2022-09-12T16:51:28.141Z,23.22
2022-09-12T16:56:30.764Z,23.14
2022-09-12T17:01:35.193Z,23.12
2022-09-12T17:06:37.775Z,23.07
2022-09-12T17:11:40.442Z,22.99
2022-09-12T17:16:51.417Z,22.88
2022-09-12T17:21:55.279Z,22.73
2022-09-12T17:26:59.378Z,22.68
2022-09-12T17:32:04.114Z,20.46
2022-09-12T17:37:10.057Z,20.79
2022-09-12T17:42:39.688Z,20.54
2022-09-12T17:48:19.198Z,21.43
2022-09-12T17:53:57.319Z,20.11
2022-09-12T17:59:23.149Z,22.35
2022-09-12T18:04:30.695Z,21.23
2022-09-12T18:09:33.511Z,20.02
2022-09-12T18:14:36.691Z,21.36
2022-09-12T18:25:46.599Z,20.65
2022-09-12T18:30:49.612Z,21.70
2022-09-12T18:35:54.211Z,21.63
2022-09-12T18:41:39.533Z,21.58
2022-09-12T18:47:04.091Z,19.95
2022-09-12T18:52:20.596Z,19.27
2022-09-12T19:03:20.062Z,19.60
2022-09-12T19:14:15.267Z,18.38
2022-09-12T19:19:20.569Z,20.68
2022-09-12T19:24:25.583Z,19.31
2022-09-12T19:29:33.392Z,20.86
2022-09-12T19:34:57.939Z,20.81
2022-09-12T19:40:07.464Z,19.90
2022-09-12T19:45:21.373Z,18.09
2022-09-12T19:50:24.727Z,18.97
2022-09-12T19:55:29.306Z,20.53
2022-09-12T20:00:32.342Z,18.43
2022-09-12T20:05:42.738Z,19.09
2022-09-12T20:10:47.211Z,20.43
2022-09-12T20:15:51.385Z,19.50
2022-09-12T20:20:54.549Z,17.43
2022-09-12T20:26:04.149Z,20.18
2022-09-12T20:31:17.493Z,20.10
2022-09-12T20:36:37.076Z,19.97
2022-09-12T20:41:45.974Z,19.09
2022-09-12T20:46:49.443Z,17.56
2022-09-12T20:51:52.306Z,19.80
2022-09-12T20:56:57.046Z,19.08
2022-09-12T21:02:00.137Z,20.04
2022-09-12T21:07:05.714Z,19.12
2022-09-12T21:12:09.978Z,19.91
2022-09-12T21:17:16.498Z,18.61
2022-09-12T21:22:21.726Z,19.73
2022-09-12T21:27:25.826Z,19.72
2022-09-12T21:32:34.719Z,18.71
2022-09-12T21:37:37.926Z,19.72
2022-09-12T21:42:42.065Z,19.56
2022-09-12T21:47:44.842Z,19.48
2022-09-12T21:52:47.642Z,19.26
2022-09-12T21:57:51.797Z,18.40
2022-09-12T22:02:54.566Z,19.32
2022-09-12T22:07:57.287Z,19.09
2022-09-12T22:13:01.471Z,18.88
2022-09-12T22:18:04.193Z,19.25
2022-09-12T22:23:27.188Z,19.32
2022-09-12T22:28:32.143Z,19.17
2022-09-12T22:33:34.952Z,18.48
2022-09-12T22:38:37.913Z,17.49
2022-09-12T22:43:42.579Z,18.60
2022-09-12T22:48:47.074Z,18.05
2022-09-12T22:53:49.757Z,18.71
2022-09-12T22:58:55.143Z,19.08
2022-09-12T23:03:58.084Z,19.02
2022-09-12T23:09:00.729Z,18.93
2022-09-12T23:14:06.596Z,18.45
2022-09-12T23:19:09.280Z,18.66
2022-09-12T23:24:11.989Z,18.47
2022-09-12T23:29:16.109Z,19.00
2022-09-12T23:34:19.027Z,18.36
2022-09-12T23:39:21.672Z,18.69
2022-09-12T23:44:34.705Z,18.99
2022-09-12T23:49:38.982Z,18.87
2022-09-12T23:54:41.741Z,17.83
2022-09-12T23:59:45.763Z,18.50
